createdAt,value
2018-01-25T00:02:00.000Z,99330
2018-01-25T00:07:00.000Z,99333
2018-01-25T00:12:00.000Z,99327
2018-01-25T00:17:00.000Z,99330
2018-01-25T00:22:00.000Z,99340
2018-01-25T00:27:00.000Z,99333
2018-01-25T00:32:00.000Z,99334
2018-01-25T00:37:00.000Z,99346
2018-01-25T00:42:00.000Z,99343
2018-01-25T00:47:00.000Z,99336
2018-01-25T00:52:00.000Z,99341
2018-01-25T00:57:00.000Z,99325
2018-01-25T01:02:00.000Z,99344
2018-01-25T01:07:00.000Z,99345
2018-01-25T01:12:00.000Z,99354
2018-01-25T01:17:00.000Z,99337
2018-01-25T01:22:00.000Z,99342
2018-01-25T01:27:00.000Z,99340
2018-01-25T01:32:00.000Z,99331
2018-01-25T01:37:00.000Z,99319
2018-01-25T01:42:00.000Z,99326
2018-01-25T01:47:00.000Z,99333
2018-01-25T01:52:00.000Z,99343
2018-01-25T01:57:00.000Z,99352
2018-01-25T02:02:00.000Z,99341
2018-01-25T02:07:00.000Z,99327
2018-01-25T02:12:00.000Z,99325
2018-01-25T02:17:00.000Z,99321
2018-01-25T02:22:00.000Z,99310
2018-01-25T02:27:00.000Z,99313
2018-01-25T02:33:00.000Z,99315
2018-01-25T02:38:00.000Z,99319
2018-01-25T02:43:00.000Z,99325
2018-01-25T02:48:00.000Z,99329
2018-01-25T02:53:00.000Z,99316
2018-01-25T02:58:00.000Z,99330
2018-01-25T03:03:00.000Z,99329
2018-01-25T03:08:00.000Z,99328
2018-01-25T03:13:00.000Z,99331
2018-01-25T03:18:00.000Z,99335
2018-01-25T03:23:00.000Z,99330
2018-01-25T03:28:00.000Z,99333
2018-01-25T03:33:00.000Z,99319
2018-01-25T03:38:00.000Z,99336
2018-01-25T03:43:00.000Z,99328
2018-01-25T03:48:00.000Z,99342
2018-01-25T03:53:00.000Z,99331
2018-01-25T03:58:00.000Z,99321
2018-01-25T04:03:00.000Z,99325
2018-01-25T04:08:00.000Z,99319
2018-01-25T04:13:00.000Z,99324
2018-01-25T04:18:00.000Z,99341
2018-01-25T04:23:00.000Z,99317
2018-01-25T04:28:00.000Z,99331
2018-01-25T04:33:00.000Z,99354
2018-01-25T04:38:00.000Z,99351
2018-01-25T04:43:00.000Z,99354
2018-01-25T04:48:00.000Z,99366
2018-01-25T04:53:00.000Z,99369
2018-01-25T04:58:00.000Z,99378
2018-01-25T05:03:00.000Z,99375
2018-01-25T05:08:00.000Z,99382
2018-01-25T05:13:00.000Z,99386
2018-01-25T05:18:00.000Z,99399
2018-01-25T05:23:00.000Z,99394
2018-01-25T05:28:00.000Z,99392
2018-01-25T05:33:00.000Z,99402
2018-01-25T05:38:00.000Z,99405
2018-01-25T05:43:00.000Z,99409
2018-01-25T05:48:00.000Z,99414
2018-01-25T05:53:00.000Z,99420
2018-01-25T05:58:00.000Z,99411
2018-01-25T06:03:00.000Z,99419
2018-01-25T06:08:00.000Z,99425
2018-01-25T06:13:00.000Z,99432
2018-01-25T06:18:00.000Z,99438
2018-01-25T06:23:00.000Z,99437
2018-01-25T06:28:00.000Z,99447
2018-01-25T06:33:00.000Z,99449
2018-01-25T06:38:00.000Z,99457
2018-01-25T06:43:00.000Z,99449
2018-01-25T06:48:00.000Z,99454
2018-01-25T06:53:00.000Z,99461
2018-01-25T06:58:00.000Z,99465
2018-01-25T07:03:00.000Z,99467
2018-01-25T07:08:00.000Z,99473
2018-01-25T07:13:00.000Z,99467
2018-01-25T07:18:00.000Z,99459
2018-01-25T07:23:00.000Z,99473
2018-01-25T07:28:00.000Z,99469
2018-01-25T07:33:00.000Z,99439
2018-01-25T07:38:00.000Z,99429
2018-01-25T07:43:00.000Z,99427
2018-01-25T07:48:00.000Z,99424
2018-01-25T07:53:00.000Z,99433
2018-01-25T07:58:00.000Z,99443
2018-01-25T08:03:00.000Z,99436
2018-01-25T08:08:00.000Z,99439
2018-01-25T08:13:00.000Z,99440
2018-01-25T08:19:00.000Z,99443
2018-01-25T08:24:00.000Z,99437
2018-01-25T08:29:00.000Z,99429
2018-01-25T08:34:00.000Z,99448
2018-01-25T08:39:00.000Z,99438
2018-01-25T08:44:00.000Z,99444
2018-01-25T08:49:00.000Z,99445
2018-01-25T08:54:00.000Z,99443
2018-01-25T08:59:00.000Z,99435
2018-01-25T09:04:00.000Z,99438
2018-01-25T09:09:00.000Z,99444
2018-01-25T09:14:00.000Z,99455
2018-01-25T09:19:00.000Z,99446
2018-01-25T09:24:00.000Z,99460
2018-01-25T09:29:00.000Z,99465
2018-01-25T09:34:00.000Z,99469
2018-01-25T09:39:00.000Z,99467
2018-01-25T09:44:00.000Z,99465
2018-01-25T09:49:00.000Z,99442
2018-01-25T09:54:00.000Z,99447
2018-01-25T09:59:00.000Z,99435
2018-01-25T10:04:00.000Z,99436
2018-01-25T10:09:00.000Z,99418
2018-01-25T10:14:00.000Z,99426
2018-01-25T10:19:00.000Z,99407
2018-01-25T10:24:00.000Z,99407
2018-01-25T10:29:00.000Z,99415
2018-01-25T10:34:00.000Z,99416
2018-01-25T10:39:00.000Z,99413
2018-01-25T10:44:00.000Z,99395
2018-01-25T10:49:00.000Z,99389
2018-01-25T10:54:00.000Z,99382
2018-01-25T10:59:00.000Z,99383
2018-01-25T11:04:00.000Z,99375
2018-01-25T11:09:00.000Z,99367
2018-01-25T11:14:00.000Z,99359
2018-01-25T11:19:00.000Z,99355
2018-01-25T11:24:00.000Z,99353
2018-01-25T11:29:00.000Z,99349
2018-01-25T11:34:00.000Z,99342
2018-01-25T11:39:00.000Z,99326
2018-01-25T11:44:00.000Z,99332
2018-01-25T11:49:00.000Z,99320
2018-01-25T11:54:00.000Z,99313
2018-01-25T11:59:00.000Z,99307
2018-01-25T12:04:00.000Z,99301
2018-01-25T12:09:00.000Z,99285
2018-01-25T12:14:00.000Z,99285
2018-01-25T12:19:00.000Z,99282
2018-01-25T12:24:00.000Z,99278
2018-01-25T12:29:00.000Z,99264
2018-01-25T12:34:00.000Z,99259
2018-01-25T12:39:00.000Z,99257
2018-01-25T12:44:00.000Z,99248
2018-01-25T12:49:00.000Z,99236
2018-01-25T12:54:00.000Z,99231
2018-01-25T12:59:00.000Z,99226
2018-01-25T13:04:00.000Z,99217
2018-01-25T13:09:00.000Z,99211
2018-01-25T13:14:00.000Z,99205
2018-01-25T13:19:00.000Z,99207
2018-01-25T13:24:00.000Z,99210
2018-01-25T13:29:00.000Z,99205
2018-01-25T13:34:00.000Z,99220
2018-01-25T13:39:00.000Z,99204
2018-01-25T13:44:00.000Z,99205
2018-01-25T13:49:00.000Z,99205
2018-01-25T13:54:00.000Z,99194
2018-01-25T13:59:00.000Z,99197
2018-01-25T14:04:00.000Z,99191
2018-01-25T14:09:00.000Z,99191
2018-01-25T14:14:00.000Z,99189
2018-01-25T14:19:00.000Z,99187
2018-01-25T14:25:00.000Z,99172
2018-01-25T14:30:00.000Z,99182
2018-01-25T14:35:00.000Z,99179
2018-01-25T14:40:00.000Z,99173
2018-01-25T14:45:00.000Z,99166
2018-01-25T14:50:00.000Z,99173
2018-01-25T14:55:00.000Z,99164
2018-01-25T15:00:00.000Z,99173
2018-01-25T15:05:00.000Z,99169
2018-01-25T15:10:00.000Z,99164
2018-01-25T15:15:00.000Z,99174
2018-01-25T15:20:00.000Z,99163
2018-01-25T15:25:00.000Z,99181
2018-01-25T15:30:00.000Z,99174
2018-01-25T15:35:00.000Z,99171
2018-01-25T15:40:00.000Z,99159
2018-01-25T15:45:00.000Z,99158
2018-01-25T15:50:00.000Z,99157
2018-01-25T15:55:00.000Z,99169
2018-01-25T16:00:00.000Z,99165
2018-01-25T16:05:00.000Z,99168
2018-01-25T16:10:00.000Z,99144
2018-01-25T16:15:00.000Z,99153
2018-01-25T16:20:00.000Z,99145
2018-01-25T16:25:00.000Z,99140
2018-01-25T16:30:00.000Z,99140
2018-01-25T16:35:00.000Z,99148
2018-01-25T16:40:00.000Z,99133
2018-01-25T16:45:00.000Z,99132
2018-01-25T16:50:00.000Z,99130
2018-01-25T16:55:00.000Z,99133
2018-01-25T17:00:00.000Z,99140
2018-01-25T17:05:00.000Z,99132
2018-01-25T17:10:00.000Z,99132
2018-01-25T17:15:00.000Z,99130
2018-01-25T17:20:00.000Z,99138
2018-01-25T17:25:00.000Z,99137
2018-01-25T17:30:00.000Z,99123
2018-01-25T17:35:00.000Z,99122
2018-01-25T17:40:00.000Z,99132
2018-01-25T17:45:00.000Z,99121
2018-01-25T17:50:00.000Z,99130
2018-01-25T17:55:00.000Z,99133
2018-01-25T18:00:00.000Z,99124
2018-01-25T18:05:00.000Z,99122
2018-01-25T18:10:00.000Z,99113
2018-01-25T18:15:00.000Z,99110
2018-01-25T18:20:00.000Z,99098
2018-01-25T18:25:00.000Z,99107
2018-01-25T18:30:00.000Z,99093
2018-01-25T18:35:00.000Z,99084
2018-01-25T18:40:00.000Z,99084
2018-01-25T18:45:00.000Z,99075
2018-01-25T18:50:00.000Z,99065
2018-01-25T18:55:00.000Z,99056
2018-01-25T19:00:00.000Z,99051
2018-01-25T19:05:00.000Z,99045
2018-01-25T19:10:00.000Z,99036
2018-01-25T19:15:00.000Z,99031
2018-01-25T19:20:00.000Z,99034
2018-01-25T19:25:00.000Z,99033
2018-01-25T19:30:00.000Z,99021
2018-01-25T19:35:00.000Z,99019
2018-01-25T19:40:00.000Z,99012
2018-01-25T19:45:00.000Z,99007
2018-01-25T19:50:00.000Z,99015
2018-01-25T19:55:00.000Z,99014
2018-01-25T20:00:00.000Z,99008
2018-01-25T20:05:00.000Z,98999
2018-01-25T20:10:00.000Z,98984
2018-01-25T20:15:00.000Z,98983
2018-01-25T20:20:00.000Z,98990
2018-01-25T20:26:00.000Z,98991
2018-01-25T20:31:00.000Z,98983
2018-01-25T20:36:00.000Z,98978
2018-01-25T20:41:00.000Z,98969
2018-01-25T20:46:00.000Z,98972
2018-01-25T20:51:00.000Z,98968
2018-01-25T20:56:00.000Z,98963
2018-01-25T21:01:00.000Z,98966
2018-01-25T21:06:00.000Z,98960
2018-01-25T21:11:00.000Z,98964
2018-01-25T21:16:00.000Z,98955
2018-01-25T21:21:00.000Z,98964
2018-01-25T21:26:00.000Z,98961
2018-01-25T21:31:00.000Z,98953
2018-01-25T21:36:00.000Z,98949
2018-01-25T21:41:00.000Z,98957
2018-01-25T21:46:00.000Z,98971
2018-01-25T21:51:00.000Z,98984
2018-01-25T21:56:00.000Z,98988
2018-01-25T22:01:00.000Z,98986
2018-01-25T22:06:00.000Z,98993
2018-01-25T22:11:00.000Z,98997
2018-01-25T22:16:00.000Z,98974
2018-01-25T22:21:00.000Z,98978
2018-01-25T22:26:00.000Z,98994
2018-01-25T22:31:00.000Z,98988
2018-01-25T22:36:00.000Z,98992
2018-01-25T22:41:00.000Z,98991
2018-01-25T22:46:00.000Z,98989
2018-01-25T22:51:00.000Z,98980
2018-01-25T22:56:00.000Z,98980
2018-01-25T23:01:00.000Z,98960
2018-01-25T23:06:00.000Z,98965
2018-01-25T23:11:00.000Z,98969
2018-01-25T23:16:00.000Z,98953
2018-01-25T23:21:00.000Z,98952
2018-01-25T23:26:00.000Z,98963
2018-01-25T23:31:00.000Z,98957
2018-01-25T23:36:00.000Z,98957
2018-01-25T23:41:00.000Z,98947
2018-01-25T23:46:00.000Z,98941
2018-01-25T23:51:00.000Z,98946
2018-01-25T23:56:00.000Z,98955
